Time;durP1;ratioP1;P1;durP2;ratioP2;P2;SDS_P1;SDS_P2;PMS_P1;PMS_P2;Temp;Humidity;BMP_temperature;BMP_pressure;BME280_temperature;BME280_humidity;BME280_pressure;Samples;Min_cycle;Max_cycle;Signal;HPM_P1;HPM_P2
2023/10/21 00:00:23;;;;;;;1.60;0.80;;;13.70;99.90;;;;;;5063175;28;20223;-80
2023/10/21 00:02:50;;;;;;;0.70;0.70;;;13.80;99.90;;;;;;5071219;28;20173;-80
2023/10/21 00:05:16;;;;;;;0.70;0.70;;;13.80;99.90;;;;;;5071284;28;20181;-80
2023/10/21 00:07:42;;;;;;;0.80;0.80;;;13.80;99.90;;;;;;5070869;28;20254;-80
2023/10/21 00:10:08;;;;;;;0.70;0.70;;;13.80;99.90;;;;;;5072809;28;20180;-80
2023/10/21 00:12:34;;;;;;;1.03;0.80;;;13.90;99.90;;;;;;5070845;28;20659;-80
2023/10/21 00:15:00;;;;;;;1.77;0.90;;;13.80;99.90;;;;;;5071542;28;20174;-80
2023/10/21 00:17:27;;;;;;;0.80;0.60;;;13.90;99.90;;;;;;5071760;28;20169;-80
2023/10/21 00:19:52;;;;;;;0.57;0.57;;;13.80;99.90;;;;;;5076467;28;20261;-80
2023/10/21 00:22:18;;;;;;;1.13;0.60;;;13.80;99.90;;;;;;5075549;28;20606;-80
2023/10/21 00:24:43;;;;;;;0.70;0.60;;;13.80;99.90;;;;;;5075321;28;20177;-80
2023/10/21 00:27:09;;;;;;;1.17;0.80;;;13.80;99.90;;;;;;5075015;28;20212;-80
2023/10/21 00:29:34;;;;;;;0.70;0.70;;;13.80;99.90;;;;;;5076137;28;20203;-80
2023/10/21 00:32:01;;;;;;;1.57;0.80;;;13.90;99.90;;;;;;5075661;28;20226;-80
2023/10/21 00:34:27;;;;;;;0.80;0.80;;;13.90;99.90;;;;;;5076245;28;20314;-80
2023/10/21 00:36:52;;;;;;;0.70;0.70;;;14.00;99.90;;;;;;5074803;28;20715;-80
2023/10/21 00:39:18;;;;;;;0.90;0.60;;;14.00;99.90;;;;;;5076570;28;20566;-80
2023/10/21 00:41:43;;;;;;;0.83;0.77;;;14.10;99.90;;;;;;5075836;28;20214;-80
2023/10/21 00:44:09;;;;;;;0.70;0.70;;;14.10;99.90;;;;;;5075965;28;20551;-80
2023/10/21 00:46:35;;;;;;;1.03;0.87;;;14.10;99.90;;;;;;5074851;28;20672;-80
2023/10/21 00:49:03;;;;;;;0.97;0.90;;;14.10;99.90;;;;;;5075832;28;20257;-80
2023/10/21 00:51:28;;;;;;;0.60;0.60;;;14.00;99.90;;;;;;5075236;28;20556;-80
2023/10/21 00:53:56;;;;;;;1.33;0.73;;;14.00;99.90;;;;;;5075766;28;20185;-82
2023/10/21 00:56:22;;;;;;;0.60;0.60;;;14.00;99.90;;;;;;5074825;28;20179;-80
2023/10/21 00:58:47;;;;;;;1.30;0.73;;;13.90;99.90;;;;;;5074598;28;20196;-80
2023/10/21 01:01:14;;;;;;;0.80;0.80;;;13.90;99.90;;;;;;5075131;28;20172;-80
2023/10/21 01:03:40;;;;;;;0.60;0.60;;;14.00;99.90;;;;;;5074545;28;20169;-80
2023/10/21 01:06:06;;;;;;;0.80;0.80;;;14.00;99.90;;;;;;5075488;28;20606;-80
2023/10/21 01:08:45;;;;;;;2.70;1.00;;;14.00;99.90;;;;;;5130567;22;20226;-84
2023/10/21 01:11:12;;;;;;;0.70;0.70;;;14.10;99.90;;;;;;5074319;28;20173;-83
2023/10/21 01:13:38;;;;;;;1.33;1.00;;;14.20;99.90;;;;;;5074860;28;20166;-84
2023/10/21 01:16:04;;;;;;;1.10;0.80;;;14.30;99.90;;;;;;5074624;28;20215;-84
2023/10/21 01:18:33;;;;;;;1.30;1.00;;;14.30;99.90;;;;;;5069982;28;20802;-83
2023/10/21 01:21:00;;;;;;;1.20;0.83;;;14.30;99.90;;;;;;5054471;28;20166;-85
2023/10/21 01:23:27;;;;;;;0.80;0.80;;;14.30;99.90;;;;;;5054446;28;20170;-83
2023/10/21 01:25:52;;;;;;;2.50;0.80;;;14.30;84.70;;;;;;5054592;28;20174;-83
2023/10/21 01:28:18;;;;;;;0.93;0.80;;;14.40;58.50;;;;;;5054390;28;20224;-84
2023/10/21 01:30:43;;;;;;;0.97;0.83;;;14.40;62.20;;;;;;5052134;28;20181;-83
2023/10/21 01:33:09;;;;;;;1.10;0.80;;;14.50;1.00;;;;;;5053771;28;20169;-83
2023/10/21 01:35:34;;;;;;;0.90;0.90;;;14.50;1.00;;;;;;5054469;28;20177;-83
2023/10/21 01:38:00;;;;;;;1.07;0.97;;;14.60;1.00;;;;;;5053143;28;20185;-83
2023/10/21 01:40:27;;;;;;;1.50;0.80;;;14.70;1.00;;;;;;5052985;28;20224;-84
2023/10/21 01:42:52;;;;;;;0.90;0.90;;;14.70;1.00;;;;;;5052307;28;20599;-83
2023/10/21 01:45:18;;;;;;;1.43;1.10;;;14.70;1.00;;;;;;5054267;28;20324;-84
2023/10/21 01:47:44;;;;;;;1.10;0.90;;;14.60;1.00;;;;;;5052651;28;20201;-83
2023/10/21 01:50:09;;;;;;;1.60;1.10;;;14.60;1.00;;;;;;5053004;28;20186;-84
2023/10/21 01:52:36;;;;;;;1.40;0.90;;;14.60;1.00;;;;;;5053677;28;20169;-84
2023/10/21 01:55:06;;;;;;;1.10;0.97;;;14.50;1.00;;;;;;5052756;28;20182;-83
2023/10/21 01:57:32;;;;;;;3.03;1.00;;;14.60;1.00;;;;;;5052461;28;20229;-83
2023/10/21 02:00:08;;;;;;;1.00;0.90;;;14.60;1.00;;;;;;5053869;28;20228;-83
2023/10/21 02:02:37;;;;;;;0.80;0.80;;;14.60;1.00;;;;;;5052397;28;20247;-85
2023/10/21 02:05:04;;;;;;;1.03;0.90;;;14.60;1.00;;;;;;5054047;28;20219;-83
2023/10/21 02:07:31;;;;;;;1.23;0.90;;;14.50;1.00;;;;;;5052425;28;20205;-83
2023/10/21 02:09:56;;;;;;;0.80;0.80;;;14.50;6.80;;;;;;5052249;28;20205;-82
2023/10/21 02:12:22;;;;;;;0.90;0.90;;;14.50;18.10;;;;;;5053044;28;20173;-83
2023/10/21 02:14:47;;;;;;;1.07;0.97;;;14.40;55.80;;;;;;5052629;28;20316;-83
2023/10/21 02:17:13;;;;;;;1.53;1.00;;;14.40;35.90;;;;;;5052519;28;20181;-83
2023/10/21 02:19:39;;;;;;;1.20;0.90;;;14.40;33.60;;;;;;5052405;28;20323;-83
2023/10/21 02:22:04;;;;;;;2.40;0.80;;;14.30;58.70;;;;;;5051669;28;20217;-82
2023/10/21 02:24:34;;;;;;;1.53;0.97;;;14.40;45.70;;;;;;5052255;28;20180;-83
2023/10/21 02:27:01;;;;;;;0.80;0.80;;;14.30;63.90;;;;;;5053234;28;20586;-83
2023/10/21 02:29:26;;;;;;;0.83;0.83;;;14.30;99.90;;;;;;5053209;28;20197;-83
2023/10/21 02:31:52;;;;;;;1.47;1.00;;;14.30;84.60;;;;;;5051622;28;20178;-83
2023/10/21 02:34:19;;;;;;;1.57;0.87;;;14.30;98.50;;;;;;5052024;28;20173;-83
2023/10/21 02:36:45;;;;;;;1.03;0.80;;;14.40;30.10;;;;;;5051736;28;20219;-83
2023/10/21 02:39:11;;;;;;;1.00;0.80;;;14.40;83.50;;;;;;5051773;28;20247;-83
2023/10/21 02:41:37;;;;;;;0.70;0.70;;;14.30;83.70;;;;;;5050947;28;20186;-83
2023/10/21 02:44:03;;;;;;;1.73;0.90;;;14.30;99.90;;;;;;5051839;28;20213;-83
2023/10/21 02:46:28;;;;;;;0.93;0.90;;;14.20;99.90;;;;;;5051530;28;20228;-82
2023/10/21 02:48:54;;;;;;;0.93;0.80;;;14.30;99.80;;;;;;5053176;28;20193;-83
2023/10/21 02:51:19;;;;;;;0.73;0.70;;;14.30;99.90;;;;;;5050984;28;20212;-83
2023/10/21 02:53:45;;;;;;;0.97;0.87;;;14.20;99.90;;;;;;5051547;28;20177;-83
2023/10/21 02:56:13;;;;;;;1.27;0.90;;;14.20;99.90;;;;;;5051566;28;20185;-82
2023/10/21 02:58:39;;;;;;;1.90;0.90;;;14.10;99.90;;;;;;5051620;28;20218;-83
2023/10/21 03:01:17;;;;;;;1.00;0.80;;;14.00;99.90;;;;;;5052349;28;20200;-80
2023/10/21 03:03:44;;;;;;;0.80;0.80;;;13.90;99.90;;;;;;5051903;28;20201;-82
2023/10/21 03:06:11;;;;;;;0.67;0.67;;;13.90;99.90;;;;;;5051294;28;20547;-84
2023/10/21 03:08:37;;;;;;;0.53;0.53;;;13.80;99.90;;;;;;5051118;28;20300;-83
2023/10/21 03:11:07;;;;;;;1.17;0.80;;;13.90;99.90;;;;;;5052104;28;20170;-83
2023/10/21 03:13:34;;;;;;;2.50;0.80;;;13.80;99.90;;;;;;5052562;28;20166;-83
2023/10/21 03:16:05;;;;;;;0.70;0.70;;;13.80;99.90;;;;;;5052394;28;20184;-85
2023/10/21 03:18:31;;;;;;;1.77;1.00;;;13.70;99.90;;;;;;5051171;28;20200;-83
2023/10/21 03:20:57;;;;;;;1.33;0.80;;;13.60;99.90;;;;;;5052497;28;20185;-83
2023/10/21 03:23:23;;;;;;;0.90;0.80;;;13.60;99.90;;;;;;5051924;28;20178;-83
2023/10/21 03:25:55;;;;;;;1.10;0.80;;;13.60;99.90;;;;;;5052148;28;20174;-83
2023/10/21 03:28:22;;;;;;;0.80;0.80;;;13.60;99.90;;;;;;5050795;28;20201;-83
2023/10/21 03:30:48;;;;;;;0.70;0.60;;;13.50;99.90;;;;;;5050942;28;20260;-82
2023/10/21 03:33:13;;;;;;;1.93;0.90;;;13.60;99.90;;;;;;5050698;28;20375;-82
2023/10/21 03:35:39;;;;;;;0.97;0.67;;;13.60;99.90;;;;;;5050781;28;20169;-83
2023/10/21 03:38:04;;;;;;;1.00;0.60;;;13.50;99.90;;;;;;5052043;28;20548;-82
2023/10/21 03:40:30;;;;;;;1.63;0.70;;;13.50;99.90;;;;;;5052314;28;20547;-83
2023/10/21 03:42:55;;;;;;;1.03;0.80;;;13.50;99.90;;;;;;5051525;28;20270;-82
2023/10/21 03:45:21;;;;;;;1.23;0.70;;;13.50;99.90;;;;;;5050662;28;20178;-84
2023/10/21 03:47:47;;;;;;;0.60;0.60;;;13.40;99.90;;;;;;5050843;28;20211;-82
2023/10/21 03:50:12;;;;;;;0.90;0.70;;;13.30;99.90;;;;;;5051924;28;20203;-82
2023/10/21 03:52:39;;;;;;;2.00;0.60;;;13.30;99.90;;;;;;5051712;28;20184;-82
2023/10/21 03:55:06;;;;;;;1.50;0.70;;;13.30;99.90;;;;;;5056341;28;20174;-83
2023/10/21 03:57:31;;;;;;;0.50;0.50;;;13.20;99.90;;;;;;5054634;28;20307;-82
2023/10/21 04:00:00;;;;;;;0.63;0.63;;;13.20;99.90;;;;;;5054597;28;20223;-82
2023/10/21 04:02:25;;;;;;;2.30;0.57;;;13.20;99.90;;;;;;5055465;28;20219;-84
2023/10/21 04:04:51;;;;;;;0.90;0.60;;;13.10;99.90;;;;;;5054357;28;20178;-82
2023/10/21 04:07:16;;;;;;;1.03;0.47;;;13.10;99.90;;;;;;5055595;28;20265;-82
2023/10/21 04:09:42;;;;;;;0.93;0.60;;;13.00;99.90;;;;;;5054582;28;20248;-82
2023/10/21 04:12:09;;;;;;;0.53;0.50;;;13.00;99.90;;;;;;5055450;28;20555;-85
2023/10/21 04:14:34;;;;;;;0.50;0.50;;;13.00;99.90;;;;;;5055756;28;20161;-83
2023/10/21 04:17:00;;;;;;;0.83;0.50;;;13.00;99.90;;;;;;5055782;28;20185;-82
2023/10/21 04:19:25;;;;;;;0.60;0.60;;;13.00;99.90;;;;;;5055557;28;20198;-82
2023/10/21 04:21:52;;;;;;;1.40;0.50;;;13.00;99.90;;;;;;5053740;28;20186;-82
2023/10/21 04:24:18;;;;;;;0.40;0.40;;;13.00;99.90;;;;;;5054297;28;20212;-82
2023/10/21 04:26:43;;;;;;;0.40;0.40;;;12.90;99.90;;;;;;5054298;28;20640;-82
2023/10/21 04:29:09;;;;;;;0.60;0.43;;;12.90;99.90;;;;;;5055451;28;20205;-82
2023/10/21 04:31:35;;;;;;;0.40;0.40;;;12.90;99.90;;;;;;5053598;28;20174;-83
2023/10/21 04:34:01;;;;;;;0.43;0.43;;;12.90;99.90;;;;;;5055251;28;20165;-83
2023/10/21 04:36:26;;;;;;;0.87;0.60;;;13.00;99.90;;;;;;5055116;28;20678;-83
2023/10/21 04:38:52;;;;;;;2.37;0.40;;;13.00;99.90;;;;;;5054163;28;20193;-82
2023/10/21 04:41:17;;;;;;;0.97;0.30;;;13.00;99.90;;;;;;5055062;28;20277;-82
2023/10/21 04:43:43;;;;;;;0.40;0.40;;;13.10;99.90;;;;;;5055003;28;20212;-83
2023/10/21 04:46:08;;;;;;;0.37;0.33;;;13.20;99.90;;;;;;5055014;28;20184;-84
2023/10/21 04:48:34;;;;;;;2.03;1.10;;;13.20;99.90;;;;;;5054825;28;20214;-83
2023/10/21 04:51:00;;;;;;;1.47;0.60;;;13.20;99.90;;;;;;5054761;28;20201;-82
2023/10/21 04:53:26;;;;;;;0.53;0.40;;;13.20;99.90;;;;;;5053427;28;20220;-82
2023/10/21 04:55:51;;;;;;;0.80;0.40;;;13.20;99.90;;;;;;5055146;28;20188;-83
2023/10/21 04:58:17;;;;;;;0.50;0.50;;;13.20;99.90;;;;;;5054616;28;20201;-83
2023/10/21 05:00:42;;;;;;;0.83;0.60;;;13.20;99.90;;;;;;5054847;28;20184;-82
2023/10/21 05:03:08;;;;;;;0.53;0.53;;;13.20;99.90;;;;;;5053085;28;20684;-83
2023/10/21 05:05:34;;;;;;;1.00;0.60;;;13.20;99.90;;;;;;5054657;28;20214;-82
2023/10/21 05:08:01;;;;;;;0.50;0.50;;;13.20;99.90;;;;;;5054711;28;20205;-83
2023/10/21 05:10:27;;;;;;;0.50;0.50;;;13.30;99.90;;;;;;5054811;28;20207;-83
2023/10/21 05:12:53;;;;;;;1.67;0.57;;;13.30;99.90;;;;;;5052843;28;20251;-81
2023/10/21 05:15:18;;;;;;;0.53;0.53;;;13.40;99.90;;;;;;5054594;28;20184;-81
2023/10/21 05:17:44;;;;;;;0.53;0.43;;;13.40;99.90;;;;;;5053404;28;20181;-81
2023/10/21 05:20:11;;;;;;;0.43;0.43;;;13.40;99.90;;;;;;5053279;28;20204;-81
2023/10/21 05:22:37;;;;;;;0.43;0.43;;;13.40;99.90;;;;;;5053114;28;20255;-81
2023/10/21 05:25:03;;;;;;;0.80;0.50;;;13.30;99.90;;;;;;5053409;28;20211;-81
2023/10/21 05:27:29;;;;;;;0.60;0.50;;;13.30;99.90;;;;;;5053032;28;20205;-81
2023/10/21 05:29:55;;;;;;;0.70;0.60;;;13.30;99.90;;;;;;5054555;28;20264;-84
2023/10/21 05:32:20;;;;;;;1.10;0.60;;;13.30;99.90;;;;;;5053898;28;20638;-82
2023/10/21 05:34:46;;;;;;;0.60;0.60;;;13.40;99.90;;;;;;5053215;28;20178;-81
2023/10/21 05:37:12;;;;;;;0.57;0.50;;;13.40;99.90;;;;;;5053353;28;20229;-81
2023/10/21 05:39:37;;;;;;;0.60;0.60;;;13.40;99.90;;;;;;5053015;28;20205;-81
2023/10/21 05:42:03;;;;;;;0.43;0.43;;;13.40;99.90;;;;;;5053509;28;20182;-82
2023/10/21 05:44:29;;;;;;;0.40;0.40;;;13.40;99.90;;;;;;5053180;28;20201;-81
2023/10/21 05:46:55;;;;;;;0.80;0.50;;;13.50;99.90;;;;;;5053250;28;20233;-84
2023/10/21 05:49:22;;;;;;;0.77;0.50;;;13.40;99.90;;;;;;5052604;28;20193;-85
2023/10/21 05:51:47;;;;;;;0.57;0.57;;;13.40;99.90;;;;;;5053607;28;20166;-82
2023/10/21 05:54:13;;;;;;;2.27;0.70;;;13.40;99.90;;;;;;5053808;28;20196;-84
2023/10/21 05:56:38;;;;;;;1.20;0.80;;;13.40;99.90;;;;;;5053038;28;20663;-84
2023/10/21 05:59:04;;;;;;;0.97;0.80;;;13.30;99.90;;;;;;5052770;28;20198;-84
2023/10/21 06:01:31;;;;;;;1.53;0.60;;;13.30;99.90;;;;;;5053206;28;20235;-83
2023/10/21 06:03:56;;;;;;;0.87;0.70;;;13.30;99.90;;;;;;5053806;28;20177;-84
2023/10/21 06:06:22;;;;;;;1.77;0.70;;;13.30;99.90;;;;;;5052262;28;20174;-83
2023/10/21 06:08:48;;;;;;;1.00;0.70;;;13.30;99.90;;;;;;5053581;28;20228;-82
2023/10/21 06:11:13;;;;;;;0.50;0.50;;;13.30;99.90;;;;;;5053263;28;20173;-83
2023/10/21 06:13:39;;;;;;;1.73;0.70;;;13.30;99.90;;;;;;5053579;28;20256;-82
2023/10/21 06:16:06;;;;;;;0.70;0.70;;;13.30;99.90;;;;;;5053013;28;20165;-84
2023/10/21 06:18:32;;;;;;;1.10;0.70;;;13.30;99.90;;;;;;5052932;28;20193;-82
2023/10/21 06:20:58;;;;;;;0.60;0.60;;;13.30;99.90;;;;;;5053456;28;20174;-83
2023/10/21 06:23:23;;;;;;;1.40;0.60;;;13.30;99.90;;;;;;5053033;28;20538;-81
2023/10/21 06:25:49;;;;;;;0.70;0.70;;;13.30;99.90;;;;;;5053905;28;20177;-81
2023/10/21 06:28:14;;;;;;;0.93;0.50;;;13.30;99.90;;;;;;5051846;28;20679;-81
2023/10/21 06:30:40;;;;;;;0.60;0.60;;;13.30;99.90;;;;;;5051936;28;20170;-81
2023/10/21 06:33:09;;;;;;;0.70;0.70;;;13.30;99.90;;;;;;5051324;28;20553;-81
2023/10/21 06:35:35;;;;;;;1.23;0.80;;;13.20;99.90;;;;;;5033021;28;20166;-81
2023/10/21 06:38:01;;;;;;;0.60;0.60;;;13.10;99.90;;;;;;5033435;28;20276;-79
2023/10/21 06:40:27;;;;;;;1.40;0.87;;;13.00;99.90;;;;;;5032193;28;20257;-81
2023/10/21 06:42:53;;;;;;;1.30;0.90;;;13.00;99.90;;;;;;5031432;28;20579;-81
2023/10/21 06:45:18;;;;;;;1.00;0.90;;;13.00;99.90;;;;;;5033570;28;20174;-81
2023/10/21 06:47:45;;;;;;;0.90;0.90;;;13.00;99.90;;;;;;5031875;28;20206;-84
2023/10/21 06:50:11;;;;;;;1.53;1.07;;;13.00;99.90;;;;;;5033368;28;20205;-81
2023/10/21 06:52:37;;;;;;;1.00;0.90;;;13.00;99.90;;;;;;5032691;28;20166;-81
2023/10/21 06:55:02;;;;;;;1.20;0.90;;;13.00;99.90;;;;;;5032985;28;20174;-81
2023/10/21 06:57:28;;;;;;;2.03;1.10;;;13.00;99.90;;;;;;5033073;28;20268;-83
2023/10/21 06:59:53;;;;;;;2.13;1.10;;;13.00;99.90;;;;;;5031727;28;20284;-81
2023/10/21 07:02:19;;;;;;;1.37;1.00;;;13.00;99.90;;;;;;5031008;28;20639;-81
2023/10/21 07:04:45;;;;;;;1.50;0.90;;;13.00;99.90;;;;;;5032831;28;20261;-82
2023/10/21 07:07:10;;;;;;;1.93;1.13;;;13.10;99.90;;;;;;5031441;28;20736;-81
2023/10/21 07:09:37;;;;;;;0.80;0.80;;;13.10;99.90;;;;;;5100654;22;20676;-81
2023/10/21 07:12:03;;;;;;;1.57;1.00;;;13.10;99.90;;;;;;5072004;28;20168;-80
2023/10/21 07:14:29;;;;;;;1.10;1.00;;;13.10;99.90;;;;;;5054453;28;20176;-83
2023/10/21 07:16:55;;;;;;;0.90;0.90;;;13.10;99.90;;;;;;5072220;28;20173;-82
2023/10/21 07:19:21;;;;;;;1.13;1.03;;;13.20;99.90;;;;;;5072543;28;20664;-83
2023/10/21 07:21:48;;;;;;;1.20;1.00;;;13.10;99.90;;;;;;5053869;28;20638;-83
2023/10/21 07:24:14;;;;;;;1.53;1.27;;;13.20;99.90;;;;;;5073011;28;20621;-80
2023/10/21 07:26:40;;;;;;;2.43;1.10;;;13.20;99.90;;;;;;5054985;28;20685;-80
2023/10/21 07:29:07;;;;;;;1.53;1.10;;;13.30;99.90;;;;;;5071638;28;20215;-80
2023/10/21 07:31:33;;;;;;;0.90;0.90;;;13.30;99.90;;;;;;5072289;28;20169;-80
2023/10/21 07:33:59;;;;;;;0.83;0.83;;;13.30;99.90;;;;;;5073043;28;20161;-82
2023/10/21 07:36:25;;;;;;;1.40;0.90;;;13.40;99.90;;;;;;5072742;28;20226;-77
2023/10/21 07:38:52;;;;;;;1.07;0.97;;;13.40;99.90;;;;;;5072835;28;20196;-80
2023/10/21 07:41:18;;;;;;;0.90;0.90;;;13.40;99.90;;;;;;5054627;28;20619;-80
2023/10/21 07:43:44;;;;;;;2.90;1.00;;;13.50;99.90;;;;;;5072983;28;20173;-80
2023/10/21 07:46:10;;;;;;;0.70;0.70;;;13.40;99.90;;;;;;5072575;28;20649;-82
2023/10/21 07:48:35;;;;;;;0.80;0.80;;;13.40;99.90;;;;;;5055633;28;20201;-83
2023/10/21 07:51:01;;;;;;;1.13;0.83;;;13.40;99.90;;;;;;5073293;28;20173;-82
2023/10/21 07:53:26;;;;;;;1.33;0.63;;;13.40;99.90;;;;;;5055593;28;20724;-82
2023/10/21 07:55:53;;;;;;;1.07;0.70;;;13.40;99.90;;;;;;5056075;28;20173;-82
2023/10/21 07:58:19;;;;;;;1.67;1.30;;;13.40;99.90;;;;;;5073846;28;20177;-81
2023/10/21 08:00:44;;;;;;;3.23;2.20;;;13.20;99.90;;;;;;5073221;28;20207;-82
2023/10/21 08:03:10;;;;;;;2.77;1.27;;;13.20;99.90;;;;;;5055324;28;20227;-83
2023/10/21 08:05:35;;;;;;;2.97;1.70;;;13.20;99.90;;;;;;5055730;28;20177;-81
2023/10/21 08:08:03;;;;;;;1.80;1.57;;;13.20;99.90;;;;;;5055507;28;20205;-82
2023/10/21 08:10:29;;;;;;;2.00;1.30;;;13.20;99.90;;;;;;5055295;28;20235;-82
2023/10/21 08:12:55;;;;;;;2.57;2.37;;;13.20;99.90;;;;;;5072750;28;20211;-82
2023/10/21 08:15:20;;;;;;;3.03;1.70;;;13.30;99.90;;;;;;5055484;28;20176;-83
2023/10/21 08:17:46;;;;;;;2.23;1.83;;;13.30;99.90;;;;;;5073586;28;20613;-82
2023/10/21 08:20:11;;;;;;;1.50;1.40;;;13.30;99.90;;;;;;5073257;28;20688;-82
2023/10/21 08:22:37;;;;;;;1.60;1.40;;;13.40;99.90;;;;;;5055402;28;20181;-82
2023/10/21 08:25:03;;;;;;;1.33;0.87;;;13.40;99.90;;;;;;5055469;28;20212;-83
2023/10/21 08:27:28;;;;;;;3.30;3.07;;;13.40;99.90;;;;;;5054950;28;20246;-82
2023/10/21 08:29:54;;;;;;;3.00;2.70;;;13.40;99.90;;;;;;5072593;28;20196;-82
2023/10/21 08:32:20;;;;;;;2.67;2.47;;;13.40;99.90;;;;;;5073091;28;20188;-82
2023/10/21 08:34:46;;;;;;;0.80;0.80;;;13.40;99.90;;;;;;5073425;28;20647;-81
2023/10/21 08:37:12;;;;;;;0.90;0.90;;;13.40;99.90;;;;;;5073257;28;20698;-82
2023/10/21 08:39:38;;;;;;;0.87;0.80;;;13.40;99.90;;;;;;5057016;28;20197;-82
2023/10/21 08:42:05;;;;;;;0.70;0.60;;;13.40;99.90;;;;;;5076177;28;20173;-81
2023/10/21 08:44:32;;;;;;;1.00;1.00;;;13.40;99.90;;;;;;5076668;28;20181;-82
2023/10/21 08:47:00;;;;;;;1.50;1.27;;;13.70;99.90;;;;;;5058797;28;20236;-83
2023/10/21 08:49:27;;;;;;;1.40;1.30;;;13.80;99.90;;;;;;5076103;28;20193;-82
2023/10/21 08:51:53;;;;;;;0.90;0.90;;;13.90;99.90;;;;;;5058038;28;20165;-81
2023/10/21 08:54:19;;;;;;;0.60;0.60;;;13.90;99.90;;;;;;5058389;28;20230;-82
2023/10/21 08:56:45;;;;;;;0.80;0.80;;;14.00;99.90;;;;;;5076785;28;20204;-81
2023/10/21 08:59:12;;;;;;;0.87;0.87;;;14.10;99.90;;;;;;5076732;28;20220;-82
2023/10/21 09:01:39;;;;;;;0.90;0.70;;;14.20;99.90;;;;;;5075964;28;20173;-79
2023/10/21 09:04:05;;;;;;;0.63;0.50;;;14.20;99.90;;;;;;5076147;28;20239;-81
2023/10/21 09:06:31;;;;;;;0.67;0.50;;;14.20;99.90;;;;;;5076398;28;20177;-81
2023/10/21 09:08:56;;;;;;;0.53;0.53;;;14.10;99.90;;;;;;5057896;28;20219;-81
2023/10/21 09:11:27;;;;;;;0.57;0.53;;;14.00;99.90;;;;;;5057568;28;20176;-81
2023/10/21 09:13:58;;;;;;;1.00;0.50;;;13.90;99.90;;;;;;5076153;28;20179;-82
2023/10/21 09:16:25;;;;;;;0.53;0.53;;;13.80;99.90;;;;;;5058590;28;20189;-81
2023/10/21 09:19:07;;;;;;;0.43;0.40;;;13.90;99.90;;;;;;5057689;28;20196;-82
2023/10/21 09:21:38;;;;;;;0.50;0.50;;;14.00;99.90;;;;;;5074525;28;20176;-82
2023/10/21 09:24:04;;;;;;;0.60;0.60;;;14.00;99.90;;;;;;5075227;28;20630;-81
2023/10/21 09:26:34;;;;;;;1.50;0.80;;;14.10;19.70;;;;;;5075599;28;20177;-82
2023/10/21 09:29:13;;;;;;;2.10;1.23;;;14.20;1.00;;;;;;5075391;28;20193;-82
2023/10/21 09:31:52;;;;;;;0.90;0.60;;;14.20;1.00;;;;;;5057471;28;20185;-82
2023/10/21 09:34:30;;;;;;;1.20;0.80;;;14.40;1.00;;;;;;5075401;28;20181;-82
2023/10/21 09:37:01;;;;;;;0.50;0.50;;;14.40;1.00;;;;;;5058144;28;20172;-81
2023/10/21 09:39:33;;;;;;;0.70;0.60;;;14.30;99.90;;;;;;5057921;28;20206;-81
2023/10/21 09:42:00;;;;;;;0.83;0.83;;;14.20;1.00;;;;;;5057609;28;20709;-82
2023/10/21 09:44:25;;;;;;;0.53;0.53;;;14.10;1.00;;;;;;5075335;28;20169;-81
2023/10/21 09:46:57;;;;;;;1.00;0.43;;;14.10;1.00;;;;;;5057554;28;20200;-82
2023/10/21 09:49:26;;;;;;;0.50;0.50;;;14.20;1.00;;;;;;5076057;28;20197;-81
2023/10/21 09:52:07;;;;;;;0.60;0.60;;;14.20;1.00;;;;;;5073555;28;20177;-82
2023/10/21 09:54:40;;;;;;;1.10;0.60;;;14.10;1.00;;;;;;5056934;28;20251;-81
2023/10/21 09:57:09;;;;;;;0.90;0.60;;;14.10;1.00;;;;;;5074484;28;20187;-81
2023/10/21 09:59:37;;;;;;;0.70;0.50;;;14.10;1.00;;;;;;5056461;28;20274;-82
2023/10/21 10:02:04;;;;;;;0.50;0.47;;;14.00;1.00;;;;;;5074366;28;20169;-79
2023/10/21 10:04:32;;;;;;;1.23;0.60;;;14.10;1.00;;;;;;5074471;28;20169;-81
2023/10/21 10:06:58;;;;;;;1.33;0.70;;;14.00;1.00;;;;;;5056649;28;20657;-80
2023/10/21 10:09:28;;;;;;;1.43;0.60;;;13.90;1.00;;;;;;5056557;28;20296;-80
2023/10/21 10:11:58;;;;;;;1.10;0.80;;;13.90;68.40;;;;;;5074144;28;20235;-81
2023/10/21 10:14:30;;;;;;;0.60;0.60;;;13.90;99.90;;;;;;5074315;28;20173;-81
2023/10/21 10:16:56;;;;;;;0.93;0.80;;;14.20;99.90;;;;;;5056476;28;20245;-81
2023/10/21 10:19:42;;;;;;;1.33;1.00;;;14.40;99.90;;;;;;5055806;28;20283;-82
2023/10/21 10:22:29;;;;;;;1.43;1.07;;;14.40;99.90;;;;;;5055148;28;20211;-82
2023/10/21 10:24:56;;;;;;;1.33;1.17;;;14.30;99.90;;;;;;5073232;28;20218;-83
2023/10/21 10:27:47;;;;;;;1.40;1.30;;;14.30;41.90;;;;;;5073181;28;20230;-83
2023/10/21 10:30:19;;;;;;;1.77;1.33;;;14.30;1.00;;;;;;5051128;28;20205;-83
2023/10/21 10:32:47;;;;;;;1.60;0.90;;;14.30;1.00;;;;;;5054512;28;20551;-83
2023/10/21 10:35:31;;;;;;;1.47;0.50;;;14.20;1.00;;;;;;5055394;28;20173;-85
2023/10/21 10:38:00;;;;;;;5.73;3.53;;;14.20;1.00;;;;;;5072809;28;20176;-83
2023/10/21 10:40:33;;;;;;;1.57;1.40;;;14.20;1.00;;;;;;5072693;28;20204;-83
2023/10/21 10:42:59;;;;;;;1.60;1.10;;;14.20;1.00;;;;;;5072110;28;20165;-83
2023/10/21 10:45:25;;;;;;;2.70;1.00;;;14.20;1.00;;;;;;5054697;28;20181;-83
2023/10/21 10:48:04;;;;;;;1.83;1.00;;;14.20;1.00;;;;;;5054889;28;20587;-83
2023/10/21 10:50:31;;;;;;;1.73;1.20;;;14.50;1.00;;;;;;5054546;28;20333;-83
2023/10/21 10:52:57;;;;;;;2.23;0.87;;;14.60;1.00;;;;;;5071788;28;20180;-83
2023/10/21 10:55:23;;;;;;;0.70;0.70;;;14.70;1.00;;;;;;5054657;28;20173;-83
2023/10/21 10:57:51;;;;;;;1.63;0.90;;;14.70;1.00;;;;;;5054557;28;20173;-83
2023/10/21 11:00:20;;;;;;;1.33;0.80;;;14.80;1.00;;;;;;5054424;28;20285;-83
2023/10/21 11:02:49;;;;;;;2.40;0.80;;;14.80;1.00;;;;;;5071945;28;20214;-83
2023/10/21 11:05:22;;;;;;;1.50;0.80;;;14.70;99.90;;;;;;5072625;28;20206;-82
2023/10/21 11:07:54;;;;;;;1.27;0.77;;;14.70;1.00;;;;;;5054865;28;20579;-82
2023/10/21 11:10:22;;;;;;;2.43;0.80;;;15.10;1.00;;;;;;5072430;28;20209;-82
2023/10/21 11:12:49;;;;;;;0.70;0.70;;;15.30;1.00;;;;;;5072590;28;20191;-81
2023/10/21 11:15:16;;;;;;;1.63;0.70;;;15.60;1.00;;;;;;5055227;28;20707;-83
2023/10/21 11:17:46;;;;;;;1.70;0.83;;;15.80;1.00;;;;;;5055936;28;20215;-83
2023/10/21 11:20:13;;;;;;;1.97;0.70;;;15.60;28.80;;;;;;5073997;28;20201;-84
2023/10/21 11:22:39;;;;;;;1.63;1.17;;;15.60;99.90;;;;;;5073053;28;20647;-81
2023/10/21 11:25:05;;;;;;;1.53;0.70;;;15.50;99.90;;;;;;5056478;28;20176;-81
2023/10/21 11:27:32;;;;;;;3.33;0.70;;;15.60;99.90;;;;;;5056098;28;20208;-82
2023/10/21 11:29:59;;;;;;;1.70;0.67;;;15.50;99.90;;;;;;5054388;28;20334;-88
2023/10/21 11:32:30;;;;;;;1.33;0.80;;;15.40;1.00;;;;;;5071406;28;20173;-88
2023/10/21 11:35:10;;;;;;;2.50;0.70;;;15.40;1.00;;;;;;5071944;28;20201;-88
2023/10/21 12:39:50;;;;;;;0.80;0.80;;;17.50;1.00;;;;;;5869201;22;20222;-81
2023/10/21 12:42:27;;;;;;;1.50;0.80;;;17.60;99.90;;;;;;4991938;28;20235;-82
2023/10/21 12:45:05;;;;;;;3.00;1.00;;;17.40;1.00;;;;;;4976833;28;20172;-81
2023/10/21 12:47:30;;;;;;;1.83;0.80;;;17.30;99.90;;;;;;4975412;28;20195;-82
2023/10/21 12:49:56;;;;;;;1.13;0.50;;;17.40;99.90;;;;;;4975645;28;20192;-81
2023/10/21 12:52:23;;;;;;;0.87;0.50;;;17.40;99.90;;;;;;4976174;28;20199;-81
2023/10/21 12:54:48;;;;;;;0.60;0.50;;;17.20;99.90;;;;;;5041107;23;20227;-79
2023/10/21 12:57:14;;;;;;;1.33;0.70;;;17.00;13.10;;;;;;4995476;28;20521;-79
2023/10/21 12:59:41;;;;;;;1.57;0.70;;;16.80;1.00;;;;;;4994332;28;20178;-79
2023/10/21 13:02:09;;;;;;;5.13;0.80;;;17.00;1.00;;;;;;4994408;28;20183;-79
2023/10/21 13:04:37;;;;;;;1.80;0.70;;;17.30;24.90;;;;;;4995322;28;20353;-79
2023/10/21 13:07:06;;;;;;;1.50;0.90;;;17.30;1.00;;;;;;4995462;28;20203;-79
2023/10/21 13:09:32;;;;;;;1.60;0.70;;;16.90;1.00;;;;;;4995228;28;20176;-79
2023/10/21 13:11:58;;;;;;;0.80;0.80;;;17.10;99.90;;;;;;4995301;28;20172;-79
2023/10/21 13:14:27;;;;;;;4.37;0.90;;;17.80;1.00;;;;;;4993843;28;20218;-78
2023/10/21 13:16:53;;;;;;;1.50;1.00;;;18.10;1.00;;;;;;4994093;28;20191;-79
2023/10/21 13:19:19;;;;;;;2.33;1.00;;;18.30;99.90;;;;;;4993390;28;20176;-78
2023/10/21 13:21:45;;;;;;;0.93;0.60;;;18.30;99.90;;;;;;4993905;28;20298;-78
2023/10/21 13:24:10;;;;;;;1.40;0.80;;;18.30;1.00;;;;;;4979330;28;20207;-78
2023/10/21 13:26:37;;;;;;;1.17;0.70;;;18.50;11.50;;;;;;4992660;28;20215;-78
2023/10/21 13:29:04;;;;;;;1.25;0.70;;;18.30;1.00;;;;;;4995406;28;20226;-78
2023/10/21 13:31:30;;;;;;;0.90;0.50;;;18.00;21.20;;;;;;4995294;28;20164;-78
2023/10/21 13:33:55;;;;;;;2.17;1.30;;;17.60;99.90;;;;;;4994323;28;20275;-78
2023/10/21 13:36:22;;;;;;;1.97;0.90;;;17.40;99.90;;;;;;4994185;28;20172;-78
2023/10/21 13:38:47;;;;;;;1.47;0.67;;;17.30;1.00;;;;;;4995254;28;20187;-76
2023/10/21 13:41:13;;;;;;;1.13;1.00;;;17.20;1.00;;;;;;4995301;28;20180;-78
2023/10/21 13:43:39;;;;;;;1.57;0.90;;;17.20;1.00;;;;;;4994965;28;20234;-78
2023/10/21 13:46:07;;;;;;;1.53;0.80;;;17.00;1.00;;;;;;4993742;28;20198;-78
2023/10/21 13:48:33;;;;;;;0.60;0.60;;;16.90;1.00;;;;;;4993612;28;20196;-78